Time;durP1;ratioP1;P1;durP2;ratioP2;P2;SDS_P1;SDS_P2;PMS_P1;PMS_P2;Temp;Humidity;BMP_temperature;BMP_pressure;BME280_temperature;BME280_humidity;BME280_pressure;Samples;Min_cycle;Max_cycle;Signal;HPM_P1;HPM_P2
2023/01/14 00:01:04;;;;;;;2.73;1.20;;;;;;;;;;5093633;28;20792;-57
2023/01/14 00:03:31;;;;;;;1.97;1.13;;;;;;;;;;5093641;28;20891;-57
2023/01/14 00:05:58;;;;;;;3.83;1.50;;;;;;;;;;5093409;28;20939;-56
2023/01/14 00:08:25;;;;;;;2.77;1.10;;;;;;;;;;5093631;28;20809;-57
2023/01/14 00:10:52;;;;;;;1.73;1.33;;;;;;;;;;5093824;28;20461;-52
2023/01/14 00:13:19;;;;;;;4.33;1.20;;;;;;;;;;5093866;28;20879;-57
2023/01/14 00:15:50;;;;;;;5.33;1.30;;;;;;;;;;5093521;28;20862;-56
2023/01/14 00:18:19;;;;;;;4.03;1.20;;;;;;;;;;5093358;28;20482;-56
2023/01/14 00:20:55;;;;;;;3.93;1.37;;;;;;;;;;5092479;28;20985;-55
2023/01/14 00:23:22;;;;;;;2.10;1.20;;;;;;;;;;5093483;28;20446;-57
2023/01/14 00:25:49;;;;;;;2.03;1.70;;;;;;;;;;5093343;28;20885;-57
2023/01/14 00:28:16;;;;;;;5.40;1.80;;;;;;;;;;5093132;28;20450;-56
2023/01/14 00:30:43;;;;;;;1.43;1.33;;;;;;;;;;5093055;28;20443;-55
2023/01/14 00:33:10;;;;;;;3.13;1.47;;;;;;;;;;5092966;28;20497;-54
2023/01/14 00:35:38;;;;;;;6.00;1.60;;;;;;;;;;5093142;28;20542;-55
2023/01/14 00:38:05;;;;;;;4.03;1.50;;;;;;;;;;5093047;28;20450;-56
2023/01/14 00:40:32;;;;;;;3.60;1.40;;;;;;;;;;5092888;28;20508;-52
2023/01/14 00:42:59;;;;;;;3.17;1.37;;;;;;;;;;5092946;28;20539;-52
2023/01/14 00:45:26;;;;;;;1.47;1.00;;;;;;;;;;5092840;28;20474;-56
2023/01/14 00:47:53;;;;;;;4.47;1.37;;;;;;;;;;5092744;28;20795;-57
2023/01/14 00:50:20;;;;;;;9.03;1.47;;;;;;;;;;5092619;28;20539;-57
2023/01/14 00:52:49;;;;;;;7.10;1.30;;;;;;;;;;5092898;28;20999;-54
2023/01/14 00:55:16;;;;;;;1.63;1.40;;;;;;;;;;5092741;28;20443;-55
2023/01/14 00:57:43;;;;;;;2.80;1.37;;;;;;;;;;5092621;28;21041;-52
2023/01/14 01:00:10;;;;;;;2.77;0.87;;;;;;;;;;5092493;28;20471;-53
2023/01/14 01:02:37;;;;;;;4.30;1.70;;;;;;;;;;5092852;28;20542;-57
2023/01/14 01:05:05;;;;;;;1.70;1.10;;;;;;;;;;5092630;28;21037;-57
2023/01/14 01:07:32;;;;;;;3.43;1.10;;;;;;;;;;5092628;28;20484;-56
2023/01/14 01:10:00;;;;;;;2.00;1.00;;;;;;;;;;5092609;28;20591;-53
2023/01/14 01:12:27;;;;;;;1.23;1.07;;;;;;;;;;5092452;28;20485;-53
2023/01/14 01:14:54;;;;;;;2.27;1.00;;;;;;;;;;5092612;28;20539;-56
2023/01/14 01:17:21;;;;;;;3.53;1.60;;;;;;;;;;5092843;28;20460;-53
2023/01/14 01:19:50;;;;;;;2.43;1.23;;;;;;;;;;5092784;28;20500;-52
2023/01/14 01:22:17;;;;;;;2.43;1.57;;;;;;;;;;5092584;28;20451;-55
2023/01/14 01:24:44;;;;;;;3.60;1.50;;;;;;;;;;5092745;28;20545;-55
2023/01/14 01:27:12;;;;;;;1.83;1.30;;;;;;;;;;5092318;28;20447;-55
2023/01/14 01:29:39;;;;;;;2.43;1.10;;;;;;;;;;5092602;28;20538;-57
2023/01/14 01:32:06;;;;;;;2.43;1.37;;;;;;;;;;5093050;28;20447;-54
2023/01/14 01:34:33;;;;;;;2.47;1.07;;;;;;;;;;5096367;28;20542;-54
2023/01/14 01:37:00;;;;;;;1.53;1.07;;;;;;;;;;5096209;28;20534;-52
2023/01/14 01:39:27;;;;;;;3.50;1.37;;;;;;;;;;5096062;28;20544;-53
2023/01/14 01:41:54;;;;;;;1.60;1.13;;;;;;;;;;5095954;28;20481;-53
2023/01/14 01:44:40;;;;;;;2.73;1.20;;;;;;;;;;5096030;28;20466;-53
2023/01/14 01:47:09;;;;;;;3.03;1.20;;;;;;;;;;5096198;28;20460;-55
2023/01/14 01:49:37;;;;;;;2.10;0.97;;;;;;;;;;5095932;28;20544;-57
2023/01/14 01:52:07;;;;;;;2.83;1.10;;;;;;;;;;5095995;28;20909;-53
2023/01/14 01:54:37;;;;;;;2.03;1.13;;;;;;;;;;5096246;28;20542;-53
2023/01/14 01:57:07;;;;;;;1.43;1.13;;;;;;;;;;5096187;28;20537;-56
2023/01/14 01:59:37;;;;;;;2.10;1.13;;;;;;;;;;5095812;28;21008;-57
2023/01/14 02:02:04;;;;;;;3.30;1.20;;;;;;;;;;5096003;28;20549;-56
2023/01/14 02:04:32;;;;;;;1.70;1.20;;;;;;;;;;5096074;28;20447;-53
2023/01/14 02:06:59;;;;;;;1.40;1.30;;;;;;;;;;5095775;28;20449;-57
2023/01/14 02:09:26;;;;;;;1.77;0.90;;;;;;;;;;5095769;28;20486;-56
2023/01/14 02:12:12;;;;;;;2.07;1.87;;;;;;;;;;5095801;28;20447;-56
2023/01/14 02:14:44;;;;;;;1.97;1.00;;;;;;;;;;5095639;28;20863;-51
2023/01/14 02:17:15;;;;;;;2.80;1.00;;;;;;;;;;5095498;28;20867;-55
2023/01/14 02:19:50;;;;;;;2.60;1.20;;;;;;;;;;5095817;28;20489;-54
2023/01/14 02:22:28;;;;;;;2.17;1.20;;;;;;;;;;5095683;28;20618;-56
2023/01/14 02:25:05;;;;;;;3.67;1.60;;;;;;;;;;5095510;28;20450;-54
2023/01/14 02:27:36;;;;;;;5.87;1.30;;;;;;;;;;5095224;28;20900;-56
2023/01/14 02:30:22;;;;;;;1.57;1.23;;;;;;;;;;5095532;28;20478;-56
2023/01/14 02:32:54;;;;;;;2.03;1.23;;;;;;;;;;5095466;28;20945;-55
2023/01/14 02:35:26;;;;;;;2.20;1.20;;;;;;;;;;5095817;28;20443;-51
2023/01/14 02:37:56;;;;;;;3.90;1.33;;;;;;;;;;5095210;28;20545;-56
2023/01/14 02:40:28;;;;;;;2.30;1.33;;;;;;;;;;5095225;28;20981;-54
2023/01/14 02:45:46;;;;;;;2.60;1.07;;;;;;;;;;5094102;28;20595;-56
2023/01/14 02:48:14;;;;;;;2.90;1.40;;;;;;;;;;5094986;28;20829;-53
2023/01/14 02:50:42;;;;;;;2.37;0.87;;;;;;;;;;5095115;28;20465;-51
2023/01/14 02:53:10;;;;;;;2.07;1.17;;;;;;;;;;5094900;28;20450;-53
2023/01/14 02:55:38;;;;;;;1.67;1.10;;;;;;;;;;5095000;28;20450;-53
2023/01/14 02:58:15;;;;;;;2.03;1.60;;;;;;;;;;5094917;28;20469;-53
2023/01/14 03:00:46;;;;;;;1.97;1.00;;;;;;;;;;5095196;28;20563;-57
2023/01/14 03:03:23;;;;;;;2.10;1.00;;;;;;;;;;5094641;28;20486;-53
2023/01/14 03:05:59;;;;;;;1.77;1.10;;;;;;;;;;5094741;28;20544;-52
2023/01/14 03:08:30;;;;;;;2.20;1.10;;;;;;;;;;5094704;28;20807;-52
2023/01/14 03:11:00;;;;;;;4.07;1.00;;;;;;;;;;5094509;28;20451;-51
2023/01/14 03:13:30;;;;;;;4.07;1.10;;;;;;;;;;5094353;28;20558;-56
2023/01/14 03:16:00;;;;;;;3.17;1.10;;;;;;;;;;5094824;28;20538;-57
2023/01/14 03:18:31;;;;;;;1.37;1.00;;;;;;;;;;5094453;28;20454;-54
2023/01/14 03:21:00;;;;;;;3.53;1.17;;;;;;;;;;5094222;28;20474;-57
2023/01/14 03:23:28;;;;;;;3.17;1.20;;;;;;;;;;5094469;28;20447;-49
2023/01/14 03:25:56;;;;;;;2.03;1.53;;;;;;;;;;5094180;28;20474;-56
2023/01/14 03:28:24;;;;;;;1.67;1.10;;;;;;;;;;5094601;28;20454;-55
2023/01/14 03:30:53;;;;;;;2.57;1.20;;;;;;;;;;5094234;28;20451;-56
2023/01/14 03:33:23;;;;;;;1.77;1.13;;;;;;;;;;5094179;28;20458;-55
2023/01/14 03:35:51;;;;;;;5.00;1.87;;;;;;;;;;5094197;28;20451;-57
2023/01/14 03:38:19;;;;;;;1.97;1.13;;;;;;;;;;5094028;28;20449;-55
2023/01/14 03:40:48;;;;;;;5.30;1.30;;;;;;;;;;5093896;28;20477;-57
2023/01/14 03:43:17;;;;;;;4.10;1.40;;;;;;;;;;5094130;28;20447;-51
2023/01/14 03:45:46;;;;;;;1.43;1.10;;;;;;;;;;5093760;28;21069;-57
2023/01/14 03:48:13;;;;;;;2.30;1.23;;;;;;;;;;5093842;28;20494;-53
2023/01/14 03:50:47;;;;;;;1.70;1.00;;;;;;;;;;5093891;28;20450;-52
2023/01/14 03:53:21;;;;;;;2.23;1.20;;;;;;;;;;5093737;28;20545;-52
2023/01/14 03:55:53;;;;;;;1.60;1.20;;;;;;;;;;5093829;28;20546;-51
2023/01/14 03:58:24;;;;;;;1.37;1.27;;;;;;;;;;5093773;28;20493;-57
2023/01/14 04:00:53;;;;;;;3.73;1.17;;;;;;;;;;5093533;28;20471;-54
2023/01/14 04:03:21;;;;;;;2.50;1.27;;;;;;;;;;5093386;28;20450;-54
2023/01/14 04:05:48;;;;;;;3.00;1.43;;;;;;;;;;5093381;28;20942;-55
2023/01/14 04:08:20;;;;;;;2.90;1.30;;;;;;;;;;5093693;28;20443;-53
2023/01/14 04:10:49;;;;;;;4.03;1.53;;;;;;;;;;5093908;28;20466;-56
2023/01/14 04:16:01;;;;;;;3.50;1.20;;;;;;;;;;5093806;28;20442;-55
2023/01/14 04:18:28;;;;;;;2.30;1.33;;;;;;;;;;5093479;28;20453;-51
2023/01/14 04:20:55;;;;;;;1.70;1.13;;;;;;;;;;5093394;28;20483;-54
2023/01/14 04:23:22;;;;;;;4.57;1.57;;;;;;;;;;5093170;28;20454;-53
2023/01/14 04:25:55;;;;;;;2.40;1.00;;;;;;;;;;5093222;28;20443;-51
2023/01/14 04:28:22;;;;;;;3.30;1.10;;;;;;;;;;5093101;28;20458;-56
2023/01/14 04:30:49;;;;;;;1.97;1.10;;;;;;;;;;5093346;28;20446;-52
2023/01/14 04:33:16;;;;;;;4.00;1.50;;;;;;;;;;5093454;28;20537;-55
2023/01/14 04:35:45;;;;;;;1.80;1.37;;;;;;;;;;5093311;28;20443;-55
2023/01/14 04:38:12;;;;;;;5.03;1.60;;;;;;;;;;5093114;28;20443;-53
2023/01/14 04:40:39;;;;;;;1.77;1.30;;;;;;;;;;5092950;28;20535;-53
2023/01/14 04:43:06;;;;;;;3.37;1.43;;;;;;;;;;5092943;28;20530;-56
2023/01/14 04:45:33;;;;;;;2.17;1.37;;;;;;;;;;5092902;28;20569;-52
2023/01/14 04:48:00;;;;;;;1.20;1.07;;;;;;;;;;5093072;28;20534;-54
2023/01/14 04:50:34;;;;;;;2.83;1.87;;;;;;;;;;5092859;28;20542;-54
2023/01/14 04:53:04;;;;;;;1.67;0.80;;;;;;;;;;5092650;28;20810;-54
2023/01/14 04:55:31;;;;;;;2.40;1.47;;;;;;;;;;5092594;28;20966;-52
2023/01/14 04:57:58;;;;;;;2.00;1.20;;;;;;;;;;5092912;28;20446;-51
2023/01/14 05:00:27;;;;;;;1.93;1.20;;;;;;;;;;5092744;28;20443;-57
2023/01/14 05:02:53;;;;;;;2.97;1.50;;;;;;;;;;5092657;28;20482;-56
2023/01/14 05:05:20;;;;;;;2.27;1.43;;;;;;;;;;5092661;28;20596;-54
2023/01/14 05:07:47;;;;;;;4.40;2.10;;;;;;;;;;5096023;28;20460;-55
2023/01/14 05:10:15;;;;;;;1.57;1.00;;;;;;;;;;5099171;28;20458;-50
2023/01/14 05:12:55;;;;;;;2.90;1.40;;;;;;;;;;5099294;28;20523;-52
2023/01/14 05:15:22;;;;;;;3.87;1.50;;;;;;;;;;5099496;28;20450;-52
2023/01/14 05:17:51;;;;;;;2.30;1.33;;;;;;;;;;5099207;28;20448;-55
2023/01/14 05:20:18;;;;;;;3.10;1.10;;;;;;;;;;5099294;28;20446;-53
2023/01/14 05:22:45;;;;;;;4.10;1.80;;;;;;;;;;5099111;28;20569;-54
2023/01/14 05:25:12;;;;;;;3.20;1.30;;;;;;;;;;5099167;28;20447;-50
2023/01/14 05:27:38;;;;;;;6.40;1.80;;;;;;;;;;5099174;28;20453;-53
2023/01/14 05:30:06;;;;;;;2.77;1.90;;;;;;;;;;5099116;28;20447;-57
2023/01/14 05:32:33;;;;;;;3.07;1.40;;;;;;;;;;5099091;28;20452;-49
2023/01/14 05:35:01;;;;;;;2.90;2.20;;;;;;;;;;5098890;28;20439;-48
2023/01/14 05:37:28;;;;;;;1.30;1.17;;;;;;;;;;5099352;28;20529;-56
2023/01/14 05:39:55;;;;;;;6.00;1.80;;;;;;;;;;5099148;28;20584;-53
2023/01/14 05:47:52;;;;;;;3.37;1.10;;;;;;;;;;5099080;28;20492;-52
2023/01/14 05:50:20;;;;;;;3.67;1.40;;;;;;;;;;5098929;28;20447;-55
2023/01/14 05:52:47;;;;;;;2.73;1.27;;;;;;;;;;5099026;28;20455;-52
2023/01/14 05:55:14;;;;;;;1.87;1.10;;;;;;;;;;5099258;28;20542;-56
2023/01/14 05:57:42;;;;;;;3.30;1.20;;;;;;;;;;5098930;28;20430;-54
2023/01/14 06:06:20;;;;;;;2.60;1.47;;;;;;;;;;5098845;28;20878;-55
2023/01/14 06:08:28;;;;;;;4.80;1.30;;;;;;;;;;5098917;28;20484;-55
2023/01/14 06:10:55;;;;;;;2.50;1.50;;;;;;;;;;5098722;28;20947;-56
2023/01/14 06:13:23;;;;;;;1.63;1.13;;;;;;;;;;5098873;28;20882;-55
2023/01/14 06:15:52;;;;;;;4.50;1.93;;;;;;;;;;5098797;28;20439;-56
2023/01/14 06:18:21;;;;;;;3.53;1.60;;;;;;;;;;5097683;28;20450;-54
2023/01/14 06:20:50;;;;;;;11.30;2.60;;;;;;;;;;5095110;28;20933;-57
2023/01/14 06:23:17;;;;;;;5.20;1.43;;;;;;;;;;5095991;28;20478;-58
2023/01/14 06:25:45;;;;;;;3.67;1.40;;;;;;;;;;5096179;28;20446;-56
2023/01/14 06:28:12;;;;;;;3.80;1.50;;;;;;;;;;5095908;28;20538;-54
2023/01/14 06:30:39;;;;;;;2.67;1.37;;;;;;;;;;5096174;28;20453;-56
2023/01/14 06:33:06;;;;;;;2.40;1.27;;;;;;;;;;5095618;28;20871;-56
2023/01/14 06:35:33;;;;;;;3.57;1.30;;;;;;;;;;5095821;28;20447;-56
2023/01/14 06:38:01;;;;;;;3.10;1.73;;;;;;;;;;5095770;28;20447;-58
2023/01/14 06:40:28;;;;;;;5.03;1.43;;;;;;;;;;5095965;28;20542;-57
2023/01/14 06:42:55;;;;;;;4.70;1.50;;;;;;;;;;5095736;28;20486;-56
2023/01/14 06:45:23;;;;;;;1.77;1.40;;;;;;;;;;5095509;28;20481;-56
2023/01/14 06:47:50;;;;;;;2.90;1.40;;;;;;;;;;5095335;28;20961;-57
2023/01/14 06:50:18;;;;;;;6.43;1.50;;;;;;;;;;5095344;28;20493;-57
2023/01/14 06:52:45;;;;;;;3.77;1.40;;;;;;;;;;5095516;28;20969;-53
2023/01/14 06:55:13;;;;;;;3.90;1.83;;;;;;;;;;5095607;28;20459;-56
2023/01/14 06:57:42;;;;;;;7.57;1.97;;;;;;;;;;5095298;28;20447;-55
2023/01/14 07:00:09;;;;;;;5.63;1.40;;;;;;;;;;5095586;28;20947;-55
2023/01/14 07:02:36;;;;;;;2.20;1.60;;;;;;;;;;5094994;28;20485;-57
2023/01/14 07:05:03;;;;;;;5.60;1.87;;;;;;;;;;5095322;28;20453;-57
2023/01/14 07:07:30;;;;;;;3.60;1.43;;;;;;;;;;5095599;28;20438;-57
2023/01/14 07:09:57;;;;;;;3.47;1.47;;;;;;;;;;5095154;28;20491;-57
2023/01/14 07:12:25;;;;;;;3.90;1.37;;;;;;;;;;5095196;28;20806;-56
2023/01/14 07:14:52;;;;;;;3.97;1.83;;;;;;;;;;5095159;28;20443;-57
2023/01/14 07:17:19;;;;;;;3.80;1.43;;;;;;;;;;5094738;28;20447;-56
2023/01/14 07:19:46;;;;;;;2.77;1.73;;;;;;;;;;5094969;28;20534;-57
2023/01/14 07:22:13;;;;;;;6.07;1.83;;;;;;;;;;5094665;28;20482;-57
2023/01/14 07:24:40;;;;;;;6.60;4.00;;;;;;;;;;5094663;28;20946;-57
2023/01/14 07:27:07;;;;;;;4.07;2.40;;;;;;;;;;5094859;28;20534;-56
2023/01/14 07:29:35;;;;;;;3.63;1.43;;;;;;;;;;5094569;28;20447;-57
2023/01/14 07:32:02;;;;;;;5.53;1.67;;;;;;;;;;5094204;28;20876;-56
2023/01/14 07:34:29;;;;;;;4.63;1.30;;;;;;;;;;5094535;28;20455;-57
2023/01/14 07:36:56;;;;;;;8.27;2.10;;;;;;;;;;5094460;28;20534;-57
2023/01/14 07:39:23;;;;;;;2.70;1.50;;;;;;;;;;5094722;28;20453;-57
2023/01/14 07:41:50;;;;;;;1.50;1.40;;;;;;;;;;5094351;28;20543;-57
2023/01/14 07:44:23;;;;;;;8.87;1.57;;;;;;;;;;5094053;28;20481;-57
2023/01/14 07:46:53;;;;;;;2.50;1.13;;;;;;;;;;5094256;28;20446;-57
2023/01/14 07:49:20;;;;;;;4.33;1.20;;;;;;;;;;5094385;28;20457;-57
2023/01/14 07:51:46;;;;;;;3.47;1.37;;;;;;;;;;5094346;28;20455;-53
2023/01/14 07:54:13;;;;;;;4.53;1.53;;;;;;;;;;5094200;28;20450;-53
2023/01/14 07:56:40;;;;;;;2.53;1.20;;;;;;;;;;5094285;28;20946;-52
2023/01/14 07:59:07;;;;;;;6.20;1.40;;;;;;;;;;5093930;28;20447;-53
2023/01/14 08:01:34;;;;;;;3.13;1.50;;;;;;;;;;5094178;28;20541;-50
2023/01/14 08:04:03;;;;;;;3.73;1.37;;;;;;;;;;5094065;28;20447;-54
2023/01/14 08:06:30;;;;;;;4.43;1.77;;;;;;;;;;5093960;28;20459;-56
2023/01/14 08:08:58;;;;;;;4.20;1.30;;;;;;;;;;5093772;28;20855;-55
2023/01/14 08:11:25;;;;;;;2.43;1.20;;;;;;;;;;5093708;28;20451;-56
2023/01/14 08:13:52;;;;;;;2.80;1.50;;;;;;;;;;5093959;28;20460;-55
2023/01/14 08:16:19;;;;;;;4.97;1.57;;;;;;;;;;5093835;28;20443;-55
2023/01/14 08:18:46;;;;;;;2.73;1.13;;;;;;;;;;5093732;28;20451;-56
2023/01/14 08:21:14;;;;;;;7.37;1.77;;;;;;;;;;5093586;28;20446;-57
2023/01/14 08:23:41;;;;;;;5.63;1.67;;;;;;;;;;5093402;28;20478;-56
2023/01/14 08:26:09;;;;;;;5.97;1.60;;;;;;;;;;5093485;28;20447;-52
2023/01/14 08:28:36;;;;;;;7.17;1.67;;;;;;;;;;5093606;28;20455;-57
2023/01/14 08:31:03;;;;;;;8.03;3.73;;;;;;;;;;5093512;28;20482;-56
2023/01/14 08:33:30;;;;;;;6.90;1.43;;;;;;;;;;5093556;28;20817;-56
2023/01/14 08:35:57;;;;;;;2.60;1.63;;;;;;;;;;5093365;28;20439;-53
2023/01/14 08:38:25;;;;;;;2.90;1.20;;;;;;;;;;5093503;28;20449;-51
2023/01/14 08:40:54;;;;;;;2.30;1.37;;;;;;;;;;5093230;28;20942;-57
2023/01/14 08:43:21;;;;;;;1.90;1.10;;;;;;;;;;5092625;28;20486;-57
2023/01/14 08:45:48;;;;;;;3.37;1.47;;;;;;;;;;5093282;28;20477;-52
2023/01/14 08:48:15;;;;;;;3.80;1.30;;;;;;;;;;5093364;28;20993;-57
2023/01/14 08:50:43;;;;;;;1.83;1.20;;;;;;;;;;5093183;28;20443;-57
2023/01/14 08:53:09;;;;;;;3.07;1.40;;;;;;;;;;5093075;28;20942;-56
2023/01/14 08:55:38;;;;;;;5.27;1.70;;;;;;;;;;5093312;28;20534;-54
2023/01/14 08:58:06;;;;;;;5.80;1.30;;;;;;;;;;5093486;28;20442;-57
2023/01/14 09:00:33;;;;;;;2.27;1.37;;;;;;;;;;5093070;28;20892;-57
2023/01/14 09:03:00;;;;;;;5.00;1.60;;;;;;;;;;5092917;28;20486;-50
2023/01/14 09:05:27;;;;;;;2.40;1.37;;;;;;;;;;5092806;28;20453;-57
2023/01/14 09:19:10;;;;;;;3.73;1.50;;;;;;;;;;5093002;28;21141;-57
2023/01/14 09:21:37;;;;;;;6.07;1.50;;;;;;;;;;5092841;28;20446;-56
2023/01/14 09:24:04;;;;;;;4.13;1.67;;;;;;;;;;5092745;28;20504;-57
2023/01/14 09:26:32;;;;;;;2.40;1.50;;;;;;;;;;5092732;28;20456;-58
2023/01/14 09:28:59;;;;;;;3.70;2.00;;;;;;;;;;5092991;28;20454;-56
2023/01/14 09:31:26;;;;;;;3.90;1.60;;;;;;;;;;5092861;28;20446;-57
2023/01/14 09:33:53;;;;;;;5.87;1.53;;;;;;;;;;5092842;28;20894;-57
2023/01/14 09:36:20;;;;;;;5.50;1.83;;;;;;;;;;5092742;28;20889;-56
2023/01/14 09:38:47;;;;;;;6.03;1.90;;;;;;;;;;5092592;28;20451;-57
2023/01/14 09:41:24;;;;;;;5.40;1.70;;;;;;;;;;5092874;28;20439;-57
2023/01/14 09:43:52;;;;;;;3.60;1.30;;;;;;;;;;5092277;28;21069;-56
2023/01/14 09:46:21;;;;;;;6.63;1.93;;;;;;;;;;5092687;28;20561;-57
2023/01/14 09:48:47;;;;;;;5.07;1.50;;;;;;;;;;5092610;28;20453;-57
2023/01/14 09:51:23;;;;;;;4.97;1.83;;;;;;;;;;5092570;28;20486;-57
2023/01/14 09:53:57;;;;;;;2.93;1.47;;;;;;;;;;5094386;28;20468;-55
2023/01/14 09:56:26;;;;;;;5.23;1.70;;;;;;;;;;5096634;28;20451;-56
2023/01/14 09:58:55;;;;;;;4.97;1.67;;;;;;;;;;5096278;28;20458;-57
2023/01/14 10:01:26;;;;;;;3.43;1.50;;;;;;;;;;5096241;28;20934;-57
2023/01/14 10:03:56;;;;;;;6.50;1.83;;;;;;;;;;5096068;28;20482;-57
2023/01/14 10:06:23;;;;;;;5.50;1.93;;;;;;;;;;5096552;28;20529;-57
2023/01/14 10:08:51;;;;;;;6.33;1.87;;;;;;;;;;5096332;28;20447;-56
2023/01/14 10:11:19;;;;;;;4.80;1.87;;;;;;;;;;5096340;28;20975;-57
2023/01/14 10:13:47;;;;;;;3.97;1.30;;;;;;;;;;5096261;28;20450;-56
2023/01/14 10:16:18;;;;;;;4.80;2.10;;;;;;;;;;5095959;28;20447;-57
2023/01/14 10:18:49;;;;;;;6.20;1.80;;;;;;;;;;5096166;28;20776;-55
2023/01/14 10:21:19;;;;;;;6.20;1.87;;;;;;;;;;5095992;28;20454;-53
2023/01/14 10:23:46;;;;;;;5.97;2.83;;;;;;;;;;5095800;28;20478;-54
2023/01/14 10:26:14;;;;;;;7.50;2.17;;;;;;;;;;5095686;28;20446;-50
2023/01/14 10:28:42;;;;;;;5.37;2.07;;;;;;;;;;5095702;28;20542;-55
2023/01/14 10:31:12;;;;;;;8.57;2.37;;;;;;;;;;5095586;28;20461;-56
2023/01/14 10:33:41;;;;;;;7.73;2.33;;;;;;;;;;5095443;28;20956;-57
2023/01/14 10:36:13;;;;;;;5.00;1.80;;;;;;;;;;5095639;28;20447;-55
2023/01/14 10:38:42;;;;;;;4.87;1.10;;;;;;;;;;5095372;28;20453;-52
2023/01/14 10:41:09;;;;;;;3.60;1.70;;;;;;;;;;5095385;28;20837;-52
2023/01/14 10:43:38;;;;;;;3.43;1.80;;;;;;;;;;5095232;28;20486;-55
2023/01/14 10:46:06;;;;;;;7.37;1.60;;;;;;;;;;5095462;28;20538;-53
2023/01/14 10:48:38;;;;;;;9.10;3.00;;;;;;;;;;5095323;28;20841;-56
2023/01/14 10:51:24;;;;;;;8.60;1.73;;;;;;;;;;5095258;28;20460;-53
2023/01/14 10:54:06;;;;;;;5.83;2.60;;;;;;;;;;5095103;28;20474;-53
2023/01/14 10:56:33;;;;;;;5.57;2.47;;;;;;;;;;5095272;28;20454;-55
2023/01/14 10:59:00;;;;;;;5.20;1.53;;;;;;;;;;5095096;28;20447;-56
2023/01/14 11:01:27;;;;;;;5.63;1.23;;;;;;;;;;5094900;28;20449;-55
2023/01/14 11:03:54;;;;;;;4.87;2.07;;;;;;;;;;5094823;28;20474;-51
2023/01/14 11:06:21;;;;;;;8.60;3.13;;;;;;;;;;5094051;28;20470;-56
2023/01/14 11:08:50;;;;;;;4.57;2.47;;;;;;;;;;5095050;28;20539;-57
2023/01/14 11:11:19;;;;;;;5.77;1.70;;;;;;;;;;5095002;28;21003;-57
2023/01/14 11:13:48;;;;;;;6.07;1.87;;;;;;;;;;5094909;28;20447;-56
2023/01/14 11:16:29;;;;;;;5.10;2.10;;;;;;;;;;5094613;28;20451;-51
2023/01/14 11:18:57;;;;;;;6.07;2.40;;;;;;;;;;5094543;28;20497;-57
2023/01/14 11:21:25;;;;;;;7.80;2.67;;;;;;;;;;5094770;28;20834;-54
2023/01/14 11:23:56;;;;;;;6.83;2.00;;;;;;;;;;5094515;28;20489;-56
2023/01/14 11:26:26;;;;;;;6.43;1.83;;;;;;;;;;5094597;28;20806;-57
2023/01/14 11:28:54;;;;;;;9.93;1.63;;;;;;;;;;5094465;28;20783;-57
2023/01/14 11:31:28;;;;;;;6.40;2.30;;;;;;;;;;5094257;28;20862;-56
2023/01/14 11:33:55;;;;;;;6.03;2.50;;;;;;;;;;5094247;28;20893;-57
2023/01/14 11:36:23;;;;;;;5.57;1.60;;;;;;;;;;5094194;28;20529;-51
2023/01/14 11:38:50;;;;;;;5.33;1.60;;;;;;;;;;5094173;28;20541;-57
2023/01/14 11:41:31;;;;;;;6.83;2.00;;;;;;;;;;5094202;28;20568;-57
2023/01/14 11:44:00;;;;;;;4.20;1.83;;;;;;;;;;5094058;28;20487;-56
2023/01/14 11:46:27;;;;;;;7.07;1.80;;;;;;;;;;5094223;28;20932;-57
2023/01/14 11:49:01;;;;;;;6.00;1.93;;;;;;;;;;5094137;28;20479;-57
2023/01/14 11:51:29;;;;;;;7.90;1.97;;;;;;;;;;5094059;28;20450;-57
2023/01/14 11:53:57;;;;;;;4.10;1.60;;;;;;;;;;5094266;28;20454;-57
2023/01/14 11:56:28;;;;;;;7.30;1.50;;;;;;;;;;5093759;28;20458;-56
2023/01/14 11:58:56;;;;;;;3.70;1.50;;;;;;;;;;5093971;28;20802;-56
2023/01/14 12:01:26;;;;;;;3.60;2.13;;;;;;;;;;5093774;28;20474;-53
2023/01/14 12:03:57;;;;;;;7.67;2.63;;;;;;;;;;5093485;28;20485;-55
2023/01/14 12:06:26;;;;;;;4.87;1.83;;;;;;;;;;5093660;28;20788;-57
2023/01/14 12:08:55;;;;;;;4.10;1.47;;;;;;;;;;5093495;28;20470;-56
2023/01/14 12:11:24;;;;;;;4.50;1.80;;;;;;;;;;5093858;28;20539;-54
2023/01/14 12:16:51;;;;;;;6.80;2.50;;;;;;;;;;5092916;28;20437;-57
2023/01/14 12:19:20;;;;;;;7.90;1.60;;;;;;;;;;5093628;28;20450;-57
2023/01/14 12:21:49;;;;;;;5.57;1.87;;;;;;;;;;5093772;28;20453;-58
2023/01/14 12:24:21;;;;;;;8.10;1.80;;;;;;;;;;5093639;28;20514;-57
2023/01/14 12:26:50;;;;;;;11.57;1.80;;;;;;;;;;5093553;28;20443;-57
2023/01/14 12:29:19;;;;;;;4.77;1.70;;;;;;;;;;5093659;28;20450;-56
2023/01/14 12:31:52;;;;;;;7.10;1.90;;;;;;;;;;5093479;28;20882;-58
2023/01/14 12:34:22;;;;;;;3.73;1.60;;;;;;;;;;5093682;28;20471;-57
2023/01/14 12:36:51;;;;;;;4.17;1.57;;;;;;;;;;5093230;28;21008;-57
2023/01/14 12:47:47;;;;;;;6.13;1.83;;;;;;;;;;5093544;28;20516;-57
2023/01/14 12:50:15;;;;;;;5.37;2.30;;;;;;;;;;5093187;28;20482;-57
2023/01/14 12:52:47;;;;;;;8.10;2.00;;;;;;;;;;5093022;28;20524;-57
2023/01/14 12:55:19;;;;;;;4.90;2.60;;;;;;;;;;5093339;28;20812;-57
2023/01/14 12:57:50;;;;;;;6.13;2.20;;;;;;;;;;5093189;28;20443;-56
2023/01/14 13:00:22;;;;;;;3.50;1.77;;;;;;;;;;5093544;28;20538;-57
2023/01/14 13:02:53;;;;;;;4.77;2.03;;;;;;;;;;5093160;28;20453;-58
2023/01/14 13:05:26;;;;;;;6.20;2.13;;;;;;;;;;5092688;28;20906;-57
2023/01/14 13:07:55;;;;;;;5.50;1.73;;;;;;;;;;5093306;28;20447;-58
2023/01/14 13:10:27;;;;;;;8.27;3.10;;;;;;;;;;5092996;28;21043;-55
2023/01/14 13:12:54;;;;;;;2.83;1.80;;;;;;;;;;5093246;28;20540;-57
2023/01/14 13:15:26;;;;;;;6.27;1.70;;;;;;;;;;5092910;28;20451;-57
2023/01/14 13:17:55;;;;;;;7.70;1.80;;;;;;;;;;5093066;28;20450;-56
2023/01/14 13:20:40;;;;;;;7.80;2.17;;;;;;;;;;5093057;28;20451;-56
2023/01/14 13:23:08;;;;;;;5.57;1.80;;;;;;;;;;5092858;28;20454;-57
2023/01/14 13:25:37;;;;;;;5.97;2.10;;;;;;;;;;5092997;28;20458;-55
2023/01/14 13:28:24;;;;;;;6.23;2.00;;;;;;;;;;5093079;28;20451;-58
2023/01/14 13:30:53;;;;;;;7.97;2.50;;;;;;;;;;5096791;28;20533;-56
2023/01/14 13:33:24;;;;;;;7.97;2.60;;;;;;;;;;5096808;28;20799;-56
2023/01/14 13:36:10;;;;;;;4.27;1.97;;;;;;;;;;5096914;28;20450;-56
2023/01/14 13:38:39;;;;;;;8.40;1.80;;;;;;;;;;5096663;28;20451;-57
2023/01/14 13:41:07;;;;;;;5.67;1.90;;;;;;;;;;5096868;28;20478;-56
2023/01/14 13:43:34;;;;;;;6.73;2.27;;;;;;;;;;5096403;28;20991;-56
2023/01/14 13:46:02;;;;;;;4.60;1.83;;;;;;;;;;5096653;28;20444;-56
2023/01/14 13:48:33;;;;;;;8.67;2.33;;;;;;;;;;5096607;28;20537;-57
2023/01/14 13:51:15;;;;;;;4.37;1.40;;;;;;;;;;5096433;28;20968;-56
2023/01/14 13:53:42;;;;;;;10.70;2.43;;;;;;;;;;5096642;28;20455;-58
2023/01/14 13:56:10;;;;;;;10.33;2.00;;;;;;;;;;5096440;28;20851;-56
2023/01/14 13:58:39;;;;;;;7.13;2.40;;;;;;;;;;5096383;28;20447;-57
2023/01/14 14:01:26;;;;;;;9.67;2.67;;;;;;;;;;5096307;28;20534;-57
2023/01/14 14:03:55;;;;;;;5.00;1.60;;;;;;;;;;5096375;28;20474;-56
2023/01/14 14:06:38;;;;;;;4.80;2.23;;;;;;;;;;5096750;28;20533;-57
2023/01/14 14:09:05;;;;;;;6.97;2.30;;;;;;;;;;5096425;28;20446;-56
2023/01/14 14:11:35;;;;;;;5.20;2.27;;;;;;;;;;5096086;28;20468;-56
2023/01/14 14:14:06;;;;;;;14.43;2.77;;;;;;;;;;5096302;28;20459;-57
2023/01/14 14:16:35;;;;;;;5.00;1.97;;;;;;;;;;5096164;28;20461;-57
2023/01/14 14:19:06;;;;;;;8.10;2.17;;;;;;;;;;5095879;28;20451;-57
2023/01/14 14:21:37;;;;;;;4.90;1.90;;;;;;;;;;5095971;28;20451;-57
2023/01/14 14:24:06;;;;;;;8.90;2.50;;;;;;;;;;5096094;28;21080;-57
2023/01/14 14:26:33;;;;;;;6.57;1.67;;;;;;;;;;5095805;28;20834;-57
2023/01/14 14:29:03;;;;;;;6.00;1.67;;;;;;;;;;5095724;28;20938;-54
2023/01/14 14:31:31;;;;;;;6.10;2.17;;;;;;;;;;5095597;28;20961;-57
2023/01/14 14:34:02;;;;;;;10.03;2.10;;;;;;;;;;5095463;28;20451;-56
2023/01/14 14:36:31;;;;;;;4.97;1.30;;;;;;;;;;5095347;28;20447;-57
2023/01/14 14:39:00;;;;;;;8.13;2.03;;;;;;;;;;5095384;28;20466;-56
2023/01/14 14:41:30;;;;;;;6.20;1.93;;;;;;;;;;5094194;28;20474;-57
2023/01/14 14:43:58;;;;;;;9.63;2.13;;;;;;;;;;5095301;28;20837;-57
2023/01/14 14:46:26;;;;;;;5.20;1.80;;;;;;;;;;5095222;28;20453;-55
2023/01/14 14:48:53;;;;;;;4.10;2.20;;;;;;;;;;5095193;28;20455;-56
2023/01/14 14:51:25;;;;;;;9.80;2.57;;;;;;;;;;5094929;28;20495;-54
2023/01/14 14:53:53;;;;;;;3.60;1.83;;;;;;;;;;5095278;28;20542;-57
2023/01/14 14:56:22;;;;;;;5.73;1.93;;;;;;;;;;5095427;28;20479;-57
2023/01/14 14:58:51;;;;;;;4.90;1.97;;;;;;;;;;5095196;28;20565;-56
2023/01/14 15:01:22;;;;;;;6.50;1.97;;;;;;;;;;5094870;28;20530;-59
2023/01/14 15:03:51;;;;;;;10.07;2.30;;;;;;;;;;5094890;28;20824;-55
2023/01/14 15:06:18;;;;;;;4.03;1.90;;;;;;;;;;5094992;28;20446;-56
2023/01/14 15:08:48;;;;;;;5.83;2.33;;;;;;;;;;5095210;28;20449;-57
2023/01/14 15:11:17;;;;;;;11.17;1.90;;;;;;;;;;5094890;28;20443;-56
2023/01/14 15:13:45;;;;;;;5.27;2.13;;;;;;;;;;5094656;28;20538;-55
2023/01/14 15:16:16;;;;;;;4.00;1.70;;;;;;;;;;5094576;28;20898;-58
2023/01/14 15:18:45;;;;;;;4.00;1.63;;;;;;;;;;5095008;28;20448;-56
2023/01/14 15:21:13;;;;;;;7.43;2.10;;;;;;;;;;5094438;28;20447;-56
2023/01/14 15:23:44;;;;;;;12.03;2.10;;;;;;;;;;5094162;28;20963;-57
2023/01/14 15:26:15;;;;;;;11.33;2.57;;;;;;;;;;5094136;28;20975;-55
2023/01/14 15:28:44;;;;;;;7.00;2.40;;;;;;;;;;5094017;28;21011;-56
2023/01/14 15:31:17;;;;;;;5.87;2.27;;;;;;;;;;5094279;28;20443;-54
2023/01/14 15:33:44;;;;;;;4.83;2.40;;;;;;;;;;5094278;28;20450;-55